sensor_id;sensor_type;location;lat;lon;timestamp;P1;durP1;ratioP1;P2;durP2;ratioP2
27365;SDS011;14837;57.148;-2.144;2023-04-15T00:00:36;21.63;;;7.72;;
27365;SDS011;14837;57.148;-2.144;2023-04-15T00:03:03;50.95;;;6.80;;
27365;SDS011;14837;57.148;-2.144;2023-04-15T00:05:31;37.67;;;6.57;;
27365;SDS011;14837;57.148;-2.144;2023-04-15T00:07:57;28.73;;;6.53;;
27365;SDS011;14837;57.148;-2.144;2023-04-15T00:10:24;45.08;;;7.43;;
27365;SDS011;14837;57.148;-2.144;2023-04-15T00:12:51;55.15;;;6.35;;
27365;SDS011;14837;57.148;-2.144;2023-04-15T00:15:18;47.55;;;6.35;;
27365;SDS011;14837;57.148;-2.144;2023-04-15T00:17:45;53.70;;;7.72;;
27365;SDS011;14837;57.148;-2.144;2023-04-15T00:20:11;52.03;;;7.07;;
27365;SDS011;14837;57.148;-2.144;2023-04-15T00:22:38;20.58;;;5.30;;
27365;SDS011;14837;57.148;-2.144;2023-04-15T00:25:04;102.35;;;10.57;;
27365;SDS011;14837;57.148;-2.144;2023-04-15T00:27:31;115.03;;;10.30;;
27365;SDS011;14837;57.148;-2.144;2023-04-15T00:29:58;88.28;;;8.32;;
27365;SDS011;14837;57.148;-2.144;2023-04-15T00:32:24;78.30;;;9.00;;
27365;SDS011;14837;57.148;-2.144;2023-04-15T00:34:51;59.30;;;7.47;;
27365;SDS011;14837;57.148;-2.144;2023-04-15T00:37:18;44.50;;;7.30;;
27365;SDS011;14837;57.148;-2.144;2023-04-15T00:39:44;33.15;;;7.85;;
27365;SDS011;14837;57.148;-2.144;2023-04-15T00:42:12;41.80;;;7.40;;
27365;SDS011;14837;57.148;-2.144;2023-04-15T00:44:38;20.70;;;6.03;;
27365;SDS011;14837;57.148;-2.144;2023-04-15T00:47:05;31.33;;;8.13;;
27365;SDS011;14837;57.148;-2.144;2023-04-15T00:49:31;18.92;;;6.80;;
27365;SDS011;14837;57.148;-2.144;2023-04-15T00:51:58;25.52;;;7.82;;
27365;SDS011;14837;57.148;-2.144;2023-04-15T00:54:24;64.72;;;9.05;;
27365;SDS011;14837;57.148;-2.144;2023-04-15T00:56:51;42.03;;;8.15;;
27365;SDS011;14837;57.148;-2.144;2023-04-15T00:59:19;15.82;;;6.28;;
27365;SDS011;14837;57.148;-2.144;2023-04-15T01:01:45;62.05;;;8.18;;
27365;SDS011;14837;57.148;-2.144;2023-04-15T01:04:12;23.35;;;6.90;;
27365;SDS011;14837;57.148;-2.144;2023-04-15T01:06:39;21.17;;;5.30;;
27365;SDS011;14837;57.148;-2.144;2023-04-15T01:09:06;17.15;;;5.53;;
27365;SDS011;14837;57.148;-2.144;2023-04-15T01:11:32;29.13;;;6.32;;
27365;SDS011;14837;57.148;-2.144;2023-04-15T01:13:59;21.70;;;6.63;;
27365;SDS011;14837;57.148;-2.144;2023-04-15T01:16:26;20.58;;;6.45;;
27365;SDS011;14837;57.148;-2.144;2023-04-15T01:18:54;38.83;;;7.22;;
27365;SDS011;14837;57.148;-2.144;2023-04-15T01:21:21;26.88;;;4.70;;
27365;SDS011;14837;57.148;-2.144;2023-04-15T01:23:47;14.18;;;5.68;;
27365;SDS011;14837;57.148;-2.144;2023-04-15T01:26:14;17.23;;;5.30;;
27365;SDS011;14837;57.148;-2.144;2023-04-15T01:28:41;11.77;;;6.22;;
27365;SDS011;14837;57.148;-2.144;2023-04-15T01:31:09;16.23;;;5.80;;
27365;SDS011;14837;57.148;-2.144;2023-04-15T01:33:37;18.33;;;6.10;;
27365;SDS011;14837;57.148;-2.144;2023-04-15T01:36:04;19.38;;;5.25;;
27365;SDS011;14837;57.148;-2.144;2023-04-15T01:38:31;8.90;;;6.22;;
27365;SDS011;14837;57.148;-2.144;2023-04-15T01:40:58;12.48;;;6.13;;
27365;SDS011;14837;57.148;-2.144;2023-04-15T01:43:25;17.98;;;7.97;;
27365;SDS011;14837;57.148;-2.144;2023-04-15T01:45:51;17.27;;;8.68;;
27365;SDS011;14837;57.148;-2.144;2023-04-15T01:48:18;13.82;;;6.30;;
27365;SDS011;14837;57.148;-2.144;2023-04-15T01:50:45;13.30;;;7.20;;
27365;SDS011;14837;57.148;-2.144;2023-04-15T01:53:11;11.90;;;6.85;;
27365;SDS011;14837;57.148;-2.144;2023-04-15T01:55:38;17.63;;;5.63;;
27365;SDS011;14837;57.148;-2.144;2023-04-15T01:58:05;11.98;;;6.63;;
27365;SDS011;14837;57.148;-2.144;2023-04-15T02:00:32;8.35;;;5.10;;
27365;SDS011;14837;57.148;-2.144;2023-04-15T02:02:58;13.63;;;6.45;;
27365;SDS011;14837;57.148;-2.144;2023-04-15T02:05:25;17.23;;;7.07;;
27365;SDS011;14837;57.148;-2.144;2023-04-15T02:07:52;16.92;;;6.25;;
27365;SDS011;14837;57.148;-2.144;2023-04-15T02:10:19;12.48;;;6.32;;
27365;SDS011;14837;57.148;-2.144;2023-04-15T02:12:46;18.33;;;6.68;;
27365;SDS011;14837;57.148;-2.144;2023-04-15T02:15:12;15.05;;;7.40;;
27365;SDS011;14837;57.148;-2.144;2023-04-15T02:17:39;17.55;;;8.32;;
27365;SDS011;14837;57.148;-2.144;2023-04-15T02:20:07;11.00;;;6.50;;
27365;SDS011;14837;57.148;-2.144;2023-04-15T02:22:33;9.70;;;7.55;;
27365;SDS011;14837;57.148;-2.144;2023-04-15T02:25:00;13.63;;;8.65;;
27365;SDS011;14837;57.148;-2.144;2023-04-15T02:27:27;10.50;;;6.95;;
27365;SDS011;14837;57.148;-2.144;2023-04-15T02:29:54;14.23;;;7.82;;
27365;SDS011;14837;57.148;-2.144;2023-04-15T02:32:21;16.83;;;8.13;;
27365;SDS011;14837;57.148;-2.144;2023-04-15T02:34:49;20.52;;;10.10;;
27365;SDS011;14837;57.148;-2.144;2023-04-15T02:37:16;42.72;;;9.57;;
27365;SDS011;14837;57.148;-2.144;2023-04-15T02:39:44;20.48;;;8.57;;
27365;SDS011;14837;57.148;-2.144;2023-04-15T02:42:11;12.52;;;6.95;;
27365;SDS011;14837;57.148;-2.144;2023-04-15T02:44:38;29.05;;;8.75;;
27365;SDS011;14837;57.148;-2.144;2023-04-15T02:47:05;17.58;;;7.65;;
27365;SDS011;14837;57.148;-2.144;2023-04-15T02:49:32;36.28;;;7.78;;
27365;SDS011;14837;57.148;-2.144;2023-04-15T02:51:59;12.55;;;7.18;;
27365;SDS011;14837;57.148;-2.144;2023-04-15T02:54:25;20.27;;;8.40;;
27365;SDS011;14837;57.148;-2.144;2023-04-15T02:56:55;15.95;;;7.65;;
27365;SDS011;14837;57.148;-2.144;2023-04-15T02:59:22;24.65;;;7.82;;
27365;SDS011;14837;57.148;-2.144;2023-04-15T03:01:48;14.27;;;7.45;;
27365;SDS011;14837;57.148;-2.144;2023-04-15T03:04:15;13.68;;;7.70;;
27365;SDS011;14837;57.148;-2.144;2023-04-15T03:06:42;12.02;;;5.75;;
27365;SDS011;14837;57.148;-2.144;2023-04-15T03:09:08;11.73;;;8.05;;
27365;SDS011;14837;57.148;-2.144;2023-04-15T03:11:35;14.70;;;7.65;;
27365;SDS011;14837;57.148;-2.144;2023-04-15T03:14:05;18.48;;;9.02;;
27365;SDS011;14837;57.148;-2.144;2023-04-15T03:16:32;19.88;;;8.60;;
27365;SDS011;14837;57.148;-2.144;2023-04-15T03:18:58;13.15;;;7.68;;
27365;SDS011;14837;57.148;-2.144;2023-04-15T03:21:26;12.50;;;8.43;;
27365;SDS011;14837;57.148;-2.144;2023-04-15T03:23:52;24.75;;;9.15;;
27365;SDS011;14837;57.148;-2.144;2023-04-15T03:26:23;13.85;;;7.65;;
27365;SDS011;14837;57.148;-2.144;2023-04-15T03:28:49;10.68;;;7.28;;
27365;SDS011;14837;57.148;-2.144;2023-04-15T03:31:16;13.95;;;7.78;;
27365;SDS011;14837;57.148;-2.144;2023-04-15T03:33:43;14.90;;;9.57;;
27365;SDS011;14837;57.148;-2.144;2023-04-15T03:36:09;26.42;;;10.00;;
27365;SDS011;14837;57.148;-2.144;2023-04-15T03:38:36;32.67;;;13.50;;
27365;SDS011;14837;57.148;-2.144;2023-04-15T03:41:02;37.30;;;12.07;;
27365;SDS011;14837;57.148;-2.144;2023-04-15T03:43:29;15.07;;;9.60;;
27365;SDS011;14837;57.148;-2.144;2023-04-15T03:45:55;31.83;;;11.25;;
27365;SDS011;14837;57.148;-2.144;2023-04-15T03:48:22;29.75;;;12.77;;
27365;SDS011;14837;57.148;-2.144;2023-04-15T03:50:48;19.27;;;10.88;;
27365;SDS011;14837;57.148;-2.144;2023-04-15T03:53:15;35.40;;;13.32;;
27365;SDS011;14837;57.148;-2.144;2023-04-15T03:55:41;38.08;;;14.95;;
27365;SDS011;14837;57.148;-2.144;2023-04-15T03:58:08;52.40;;;17.60;;
27365;SDS011;14837;57.148;-2.144;2023-04-15T04:00:38;98.15;;;21.58;;
27365;SDS011;14837;57.148;-2.144;2023-04-15T04:03:05;34.78;;;16.98;;
27365;SDS011;14837;57.148;-2.144;2023-04-15T04:05:32;32.30;;;17.65;;
27365;SDS011;14837;57.148;-2.144;2023-04-15T04:08:02;28.85;;;16.67;;
27365;SDS011;14837;57.148;-2.144;2023-04-15T04:10:28;29.88;;;14.10;;
27365;SDS011;14837;57.148;-2.144;2023-04-15T04:12:55;45.42;;;16.50;;
27365;SDS011;14837;57.148;-2.144;2023-04-15T04:15:22;33.35;;;16.38;;
27365;SDS011;14837;57.148;-2.144;2023-04-15T04:17:48;43.42;;;19.30;;
27365;SDS011;14837;57.148;-2.144;2023-04-15T04:20:15;33.22;;;17.77;;
27365;SDS011;14837;57.148;-2.144;2023-04-15T04:22:41;99.03;;;31.98;;
27365;SDS011;14837;57.148;-2.144;2023-04-15T04:25:08;105.43;;;35.17;;
27365;SDS011;14837;57.148;-2.144;2023-04-15T04:27:37;66.70;;;26.85;;
27365;SDS011;14837;57.148;-2.144;2023-04-15T04:30:04;103.30;;;33.65;;
27365;SDS011;14837;57.148;-2.144;2023-04-15T04:32:32;52.13;;;25.17;;
27365;SDS011;14837;57.148;-2.144;2023-04-15T04:34:58;97.93;;;32.50;;
27365;SDS011;14837;57.148;-2.144;2023-04-15T04:37:25;87.20;;;31.05;;
27365;SDS011;14837;57.148;-2.144;2023-04-15T04:39:51;173.05;;;38.80;;
27365;SDS011;14837;57.148;-2.144;2023-04-15T04:42:18;75.88;;;26.55;;
27365;SDS011;14837;57.148;-2.144;2023-04-15T04:44:44;72.72;;;23.50;;
27365;SDS011;14837;57.148;-2.144;2023-04-15T04:47:11;96.72;;;27.38;;
27365;SDS011;14837;57.148;-2.144;2023-04-15T04:49:38;107.53;;;27.42;;
27365;SDS011;14837;57.148;-2.144;2023-04-15T04:52:04;115.00;;;30.67;;
27365;SDS011;14837;57.148;-2.144;2023-04-15T04:54:31;23.75;;;13.60;;
27365;SDS011;14837;57.148;-2.144;2023-04-15T04:56:58;19.75;;;10.32;;
27365;SDS011;14837;57.148;-2.144;2023-04-15T04:59:25;17.50;;;10.35;;
27365;SDS011;14837;57.148;-2.144;2023-04-15T05:01:51;28.77;;;10.15;;
27365;SDS011;14837;57.148;-2.144;2023-04-15T05:04:18;19.77;;;8.70;;
27365;SDS011;14837;57.148;-2.144;2023-04-15T05:06:44;16.02;;;7.95;;
27365;SDS011;14837;57.148;-2.144;2023-04-15T05:09:11;19.80;;;9.27;;
27365;SDS011;14837;57.148;-2.144;2023-04-15T05:11:38;25.65;;;10.65;;
27365;SDS011;14837;57.148;-2.144;2023-04-15T05:14:04;18.60;;;9.27;;
27365;SDS011;14837;57.148;-2.144;2023-04-15T05:16:31;16.95;;;7.75;;
27365;SDS011;14837;57.148;-2.144;2023-04-15T05:18:57;20.05;;;10.95;;
27365;SDS011;14837;57.148;-2.144;2023-04-15T05:21:24;17.88;;;11.48;;
27365;SDS011;14837;57.148;-2.144;2023-04-15T05:23:51;29.48;;;17.23;;
27365;SDS011;14837;57.148;-2.144;2023-04-15T05:26:17;31.27;;;18.63;;
27365;SDS011;14837;57.148;-2.144;2023-04-15T05:28:44;35.13;;;21.33;;
27365;SDS011;14837;57.148;-2.144;2023-04-15T05:31:11;41.75;;;26.83;;
27365;SDS011;14837;57.148;-2.144;2023-04-15T05:33:37;26.05;;;18.13;;
27365;SDS011;14837;57.148;-2.144;2023-04-15T05:36:04;54.90;;;23.77;;
27365;SDS011;14837;57.148;-2.144;2023-04-15T05:38:31;42.28;;;24.08;;
27365;SDS011;14837;57.148;-2.144;2023-04-15T05:40:58;27.90;;;20.20;;
27365;SDS011;14837;57.148;-2.144;2023-04-15T05:43:24;37.80;;;26.73;;
27365;SDS011;14837;57.148;-2.144;2023-04-15T05:45:51;49.72;;;30.05;;
27365;SDS011;14837;57.148;-2.144;2023-04-15T05:48:18;38.90;;;27.73;;
27365;SDS011;14837;57.148;-2.144;2023-04-15T05:50:44;48.08;;;33.13;;
27365;SDS011;14837;57.148;-2.144;2023-04-15T05:53:11;57.88;;;35.20;;
27365;SDS011;14837;57.148;-2.144;2023-04-15T05:55:38;56.78;;;35.67;;
27365;SDS011;14837;57.148;-2.144;2023-04-15T05:58:04;68.32;;;40.83;;
27365;SDS011;14837;57.148;-2.144;2023-04-15T06:00:31;117.93;;;56.15;;
27365;SDS011;14837;57.148;-2.144;2023-04-15T06:02:57;180.05;;;73.45;;
27365;SDS011;14837;57.148;-2.144;2023-04-15T06:05:24;154.98;;;64.85;;
27365;SDS011;14837;57.148;-2.144;2023-04-15T06:07:50;188.68;;;79.60;;
27365;SDS011;14837;57.148;-2.144;2023-04-15T06:10:17;97.78;;;61.60;;
27365;SDS011;14837;57.148;-2.144;2023-04-15T06:12:44;86.95;;;64.03;;
27365;SDS011;14837;57.148;-2.144;2023-04-15T06:15:11;61.33;;;45.60;;
27365;SDS011;14837;57.148;-2.144;2023-04-15T06:17:37;55.25;;;40.60;;
27365;SDS011;14837;57.148;-2.144;2023-04-15T06:20:04;50.15;;;36.05;;
27365;SDS011;14837;57.148;-2.144;2023-04-15T06:22:31;34.15;;;27.45;;
27365;SDS011;14837;57.148;-2.144;2023-04-15T06:24:57;35.20;;;25.88;;
27365;SDS011;14837;57.148;-2.144;2023-04-15T06:27:24;26.15;;;18.67;;
27365;SDS011;14837;57.148;-2.144;2023-04-15T06:29:50;23.80;;;18.60;;
27365;SDS011;14837;57.148;-2.144;2023-04-15T06:32:17;21.42;;;17.38;;
27365;SDS011;14837;57.148;-2.144;2023-04-15T06:34:43;24.00;;;19.63;;
27365;SDS011;14837;57.148;-2.144;2023-04-15T06:37:10;22.40;;;16.77;;
27365;SDS011;14837;57.148;-2.144;2023-04-15T06:39:41;17.65;;;13.27;;
27365;SDS011;14837;57.148;-2.144;2023-04-15T06:42:10;13.82;;;12.18;;
27365;SDS011;14837;57.148;-2.144;2023-04-15T06:44:37;18.65;;;11.82;;
27365;SDS011;14837;57.148;-2.144;2023-04-15T06:47:04;11.60;;;10.20;;
27365;SDS011;14837;57.148;-2.144;2023-04-15T06:49:31;13.07;;;10.40;;
27365;SDS011;14837;57.148;-2.144;2023-04-15T06:51:58;13.98;;;10.75;;
27365;SDS011;14837;57.148;-2.144;2023-04-15T06:54:26;14.40;;;10.68;;
27365;SDS011;14837;57.148;-2.144;2023-04-15T06:56:52;9.63;;;7.90;;
27365;SDS011;14837;57.148;-2.144;2023-04-15T06:59:19;14.32;;;10.43;;
27365;SDS011;14837;57.148;-2.144;2023-04-15T07:01:46;9.82;;;7.68;;
27365;SDS011;14837;57.148;-2.144;2023-04-15T07:04:12;10.48;;;9.20;;
27365;SDS011;14837;57.148;-2.144;2023-04-15T07:06:39;14.50;;;12.35;;
27365;SDS011;14837;57.148;-2.144;2023-04-15T07:09:07;15.18;;;12.32;;
27365;SDS011;14837;57.148;-2.144;2023-04-15T07:11:33;12.68;;;9.73;;
27365;SDS011;14837;57.148;-2.144;2023-04-15T07:14:00;17.77;;;13.57;;
27365;SDS011;14837;57.148;-2.144;2023-04-15T07:16:27;18.85;;;13.88;;
27365;SDS011;14837;57.148;-2.144;2023-04-15T07:18:55;21.25;;;16.65;;
27365;SDS011;14837;57.148;-2.144;2023-04-15T07:21:23;25.00;;;20.50;;
27365;SDS011;14837;57.148;-2.144;2023-04-15T07:23:49;37.83;;;28.60;;
27365;SDS011;14837;57.148;-2.144;2023-04-15T07:26:16;38.65;;;32.65;;
27365;SDS011;14837;57.148;-2.144;2023-04-15T07:28:42;50.92;;;37.35;;
27365;SDS011;14837;57.148;-2.144;2023-04-15T07:31:09;53.05;;;40.28;;
27365;SDS011;14837;57.148;-2.144;2023-04-15T07:33:36;52.60;;;43.13;;
27365;SDS011;14837;57.148;-2.144;2023-04-15T07:36:02;54.95;;;41.55;;
27365;SDS011;14837;57.148;-2.144;2023-04-15T07:38:29;32.60;;;24.95;;
27365;SDS011;14837;57.148;-2.144;2023-04-15T07:40:55;32.47;;;24.85;;
27365;SDS011;14837;57.148;-2.144;2023-04-15T07:43:22;38.25;;;28.73;;
27365;SDS011;14837;57.148;-2.144;2023-04-15T07:45:48;28.45;;;20.70;;
27365;SDS011;14837;57.148;-2.144;2023-04-15T07:48:15;28.08;;;21.17;;
27365;SDS011;14837;57.148;-2.144;2023-04-15T07:50:42;18.88;;;14.25;;
27365;SDS011;14837;57.148;-2.144;2023-04-15T07:53:08;16.75;;;11.80;;
27365;SDS011;14837;57.148;-2.144;2023-04-15T07:55:35;14.65;;;11.60;;
27365;SDS011;14837;57.148;-2.144;2023-04-15T07:58:01;16.55;;;13.98;;
27365;SDS011;14837;57.148;-2.144;2023-04-15T08:00:28;20.45;;;14.63;;
27365;SDS011;14837;57.148;-2.144;2023-04-15T08:02:55;19.30;;;14.60;;
27365;SDS011;14837;57.148;-2.144;2023-04-15T08:05:22;20.58;;;16.42;;
27365;SDS011;14837;57.148;-2.144;2023-04-15T08:07:49;20.40;;;15.27;;
27365;SDS011;14837;57.148;-2.144;2023-04-15T08:10:16;20.48;;;13.38;;
27365;SDS011;14837;57.148;-2.144;2023-04-15T08:12:42;15.65;;;11.38;;
27365;SDS011;14837;57.148;-2.144;2023-04-15T08:15:09;14.95;;;10.43;;
27365;SDS011;14837;57.148;-2.144;2023-04-15T08:17:36;13.70;;;9.93;;
27365;SDS011;14837;57.148;-2.144;2023-04-15T08:20:02;9.63;;;8.27;;
27365;SDS011;14837;57.148;-2.144;2023-04-15T08:22:31;9.57;;;7.40;;
27365;SDS011;14837;57.148;-2.144;2023-04-15T08:24:57;8.75;;;5.82;;
27365;SDS011;14837;57.148;-2.144;2023-04-15T08:27:24;8.07;;;5.55;;
27365;SDS011;14837;57.148;-2.144;2023-04-15T08:29:51;6.35;;;5.68;;
27365;SDS011;14837;57.148;-2.144;2023-04-15T08:32:17;6.40;;;3.55;;
27365;SDS011;14837;57.148;-2.144;2023-04-15T08:34:44;6.00;;;3.63;;
27365;SDS011;14837;57.148;-2.144;2023-04-15T08:37:10;9.50;;;3.97;;
27365;SDS011;14837;57.148;-2.144;2023-04-15T08:39:38;6.32;;;4.70;;
27365;SDS011;14837;57.148;-2.144;2023-04-15T08:42:05;7.20;;;4.28;;
27365;SDS011;14837;57.148;-2.144;2023-04-15T08:44:37;5.47;;;3.75;;
27365;SDS011;14837;57.148;-2.144;2023-04-15T08:47:05;4.72;;;3.28;;
27365;SDS011;14837;57.148;-2.144;2023-04-15T08:49:33;8.52;;;3.53;;
27365;SDS011;14837;57.148;-2.144;2023-04-15T08:52:00;5.82;;;4.00;;
27365;SDS011;14837;57.148;-2.144;2023-04-15T08:54:28;4.40;;;3.50;;
27365;SDS011;14837;57.148;-2.144;2023-04-15T08:56:54;4.32;;;3.38;;
27365;SDS011;14837;57.148;-2.144;2023-04-15T08:59:23;4.50;;;3.30;;
27365;SDS011;14837;57.148;-2.144;2023-04-15T09:01:49;3.10;;;2.78;;
27365;SDS011;14837;57.148;-2.144;2023-04-15T09:04:17;4.20;;;2.92;;
27365;SDS011;14837;57.148;-2.144;2023-04-15T09:06:43;3.92;;;2.60;;
27365;SDS011;14837;57.148;-2.144;2023-04-15T09:09:11;6.82;;;3.13;;
27365;SDS011;14837;57.148;-2.144;2023-04-15T09:11:38;5.70;;;2.83;;
27365;SDS011;14837;57.148;-2.144;2023-04-15T09:14:04;6.22;;;3.67;;
27365;SDS011;14837;57.148;-2.144;2023-04-15T09:16:31;5.90;;;4.00;;
27365;SDS011;14837;57.148;-2.144;2023-04-15T09:19:21;5.53;;;3.80;;
27365;SDS011;14837;57.148;-2.144;2023-04-15T09:21:49;5.07;;;3.45;;
27365;SDS011;14837;57.148;-2.144;2023-04-15T09:24:16;6.30;;;3.17;;
27365;SDS011;14837;57.148;-2.144;2023-04-15T09:26:42;8.27;;;3.47;;
27365;SDS011;14837;57.148;-2.144;2023-04-15T09:29:09;6.15;;;2.72;;
27365;SDS011;14837;57.148;-2.144;2023-04-15T09:31:39;4.40;;;3.35;;
27365;SDS011;14837;57.148;-2.144;2023-04-15T09:34:06;8.20;;;3.70;;
27365;SDS011;14837;57.148;-2.144;2023-04-15T09:36:37;6.68;;;4.10;;
27365;SDS011;14837;57.148;-2.144;2023-04-15T09:39:05;8.43;;;4.13;;
27365;SDS011;14837;57.148;-2.144;2023-04-15T09:41:32;5.75;;;4.50;;
27365;SDS011;14837;57.148;-2.144;2023-04-15T09:43:58;6.45;;;4.15;;
27365;SDS011;14837;57.148;-2.144;2023-04-15T09:46:44;7.78;;;3.90;;
27365;SDS011;14837;57.148;-2.144;2023-04-15T09:49:11;9.23;;;4.50;;
27365;SDS011;14837;57.148;-2.144;2023-04-15T09:51:38;5.72;;;3.17;;
27365;SDS011;14837;57.148;-2.144;2023-04-15T09:54:05;7.80;;;4.45;;
27365;SDS011;14837;57.148;-2.144;2023-04-15T09:56:36;9.63;;;4.65;;
27365;SDS011;14837;57.148;-2.144;2023-04-15T09:59:08;12.57;;;3.95;;
27365;SDS011;14837;57.148;-2.144;2023-04-15T10:01:35;4.78;;;3.60;;
27365;SDS011;14837;57.148;-2.144;2023-04-15T10:04:02;6.20;;;3.97;;
27365;SDS011;14837;57.148;-2.144;2023-04-15T10:06:29;7.22;;;3.70;;
27365;SDS011;14837;57.148;-2.144;2023-04-15T10:08:57;7.50;;;2.97;;
27365;SDS011;14837;57.148;-2.144;2023-04-15T10:11:24;10.27;;;3.78;;
27365;SDS011;14837;57.148;-2.144;2023-04-15T10:13:51;4.68;;;3.22;;
27365;SDS011;14837;57.148;-2.144;2023-04-15T10:16:18;4.57;;;2.85;;
27365;SDS011;14837;57.148;-2.144;2023-04-15T10:18:46;5.88;;;3.15;;
27365;SDS011;14837;57.148;-2.144;2023-04-15T10:21:13;7.63;;;3.53;;
27365;SDS011;14837;57.148;-2.144;2023-04-15T10:23:46;4.47;;;3.45;;
27365;SDS011;14837;57.148;-2.144;2023-04-15T10:26:13;5.63;;;4.18;;
27365;SDS011;14837;57.148;-2.144;2023-04-15T10:28:40;5.65;;;3.22;;
27365;SDS011;14837;57.148;-2.144;2023-04-15T10:31:07;6.30;;;2.70;;
27365;SDS011;14837;57.148;-2.144;2023-04-15T10:33:34;4.28;;;2.95;;
27365;SDS011;14837;57.148;-2.144;2023-04-15T10:36:01;4.35;;;2.67;;
27365;SDS011;14837;57.148;-2.144;2023-04-15T10:38:31;4.68;;;2.60;;
27365;SDS011;14837;57.148;-2.144;2023-04-15T10:43:47;6.68;;;2.92;;
27365;SDS011;14837;57.148;-2.144;2023-04-15T10:46:21;4.65;;;2.53;;
27365;SDS011;14837;57.148;-2.144;2023-04-15T10:48:49;4.22;;;2.40;;
27365;SDS011;14837;57.148;-2.144;2023-04-15T10:51:25;4.90;;;2.58;;
27365;SDS011;14837;57.148;-2.144;2023-04-15T10:53:55;4.15;;;2.72;;
27365;SDS011;14837;57.148;-2.144;2023-04-15T10:56:21;6.63;;;2.97;;
27365;SDS011;14837;57.148;-2.144;2023-04-15T10:58:48;8.20;;;3.15;;
27365;SDS011;14837;57.148;-2.144;2023-04-15T11:01:14;7.65;;;2.92;;
27365;SDS011;14837;57.148;-2.144;2023-04-15T11:03:41;7.28;;;2.95;;
27365;SDS011;14837;57.148;-2.144;2023-04-15T11:06:08;3.45;;;2.40;;
27365;SDS011;14837;57.148;-2.144;2023-04-15T11:11:21;5.30;;;3.00;;
27365;SDS011;14837;57.148;-2.144;2023-04-15T11:13:48;5.70;;;2.90;;
27365;SDS011;14837;57.148;-2.144;2023-04-15T11:16:15;9.38;;;2.45;;
27365;SDS011;14837;57.148;-2.144;2023-04-15T11:18:42;4.70;;;2.58;;
27365;SDS011;14837;57.148;-2.144;2023-04-15T11:21:18;3.92;;;2.53;;
27365;SDS011;14837;57.148;-2.144;2023-04-15T11:23:45;4.63;;;2.25;;
27365;SDS011;14837;57.148;-2.144;2023-04-15T11:26:14;6.38;;;2.78;;
27365;SDS011;14837;57.148;-2.144;2023-04-15T11:28:44;6.25;;;2.38;;
27365;SDS011;14837;57.148;-2.144;2023-04-15T11:31:15;4.88;;;2.38;;
27365;SDS011;14837;57.148;-2.144;2023-04-15T11:33:53;4.35;;;2.40;;
27365;SDS011;14837;57.148;-2.144;2023-04-15T11:36:19;4.13;;;1.80;;
27365;SDS011;14837;57.148;-2.144;2023-04-15T11:38:46;3.85;;;1.50;;
27365;SDS011;14837;57.148;-2.144;2023-04-15T11:41:13;5.97;;;2.30;;
27365;SDS011;14837;57.148;-2.144;2023-04-15T11:43:39;4.45;;;2.50;;
27365;SDS011;14837;57.148;-2.144;2023-04-15T11:46:06;5.32;;;1.92;;
27365;SDS011;14837;57.148;-2.144;2023-04-15T11:48:34;5.45;;;1.95;;
27365;SDS011;14837;57.148;-2.144;2023-04-15T11:51:04;5.22;;;1.90;;
27365;SDS011;14837;57.148;-2.144;2023-04-15T11:53:39;3.00;;;1.60;;
27365;SDS011;14837;57.148;-2.144;2023-04-15T11:56:10;4.88;;;1.83;;
27365;SDS011;14837;57.148;-2.144;2023-04-15T11:58:41;5.05;;;2.40;;
27365;SDS011;14837;57.148;-2.144;2023-04-15T12:01:08;2.90;;;1.85;;
27365;SDS011;14837;57.148;-2.144;2023-04-15T12:03:36;4.18;;;1.95;;
27365;SDS011;14837;57.148;-2.144;2023-04-15T12:11:16;6.05;;;2.45;;
27365;SDS011;14837;57.148;-2.144;2023-04-15T12:13:46;5.65;;;1.92;;
27365;SDS011;14837;57.148;-2.144;2023-04-15T12:16:19;5.25;;;1.67;;
27365;SDS011;14837;57.148;-2.144;2023-04-15T12:18:47;4.03;;;1.80;;
27365;SDS011;14837;57.148;-2.144;2023-04-15T12:21:18;3.88;;;1.70;;
27365;SDS011;14837;57.148;-2.144;2023-04-15T12:23:51;4.70;;;1.70;;
27365;SDS011;14837;57.148;-2.144;2023-04-15T12:26:24;3.53;;;1.70;;
27365;SDS011;14837;57.148;-2.144;2023-04-15T12:29:10;6.38;;;1.92;;
27365;SDS011;14837;57.148;-2.144;2023-04-15T12:31:45;5.80;;;2.03;;
27365;SDS011;14837;57.148;-2.144;2023-04-15T12:34:12;6.30;;;2.28;;
27365;SDS011;14837;57.148;-2.144;2023-04-15T12:36:39;5.35;;;1.65;;
27365;SDS011;14837;57.148;-2.144;2023-04-15T12:39:06;5.20;;;1.52;;
27365;SDS011;14837;57.148;-2.144;2023-04-15T12:41:33;6.32;;;2.40;;
27365;SDS011;14837;57.148;-2.144;2023-04-15T12:43:59;4.70;;;1.65;;
27365;SDS011;14837;57.148;-2.144;2023-04-15T12:46:26;4.85;;;1.80;;
27365;SDS011;14837;57.148;-2.144;2023-04-15T12:48:53;5.13;;;2.05;;
27365;SDS011;14837;57.148;-2.144;2023-04-15T12:51:19;3.70;;;1.48;;
27365;SDS011;14837;57.148;-2.144;2023-04-15T12:53:49;3.53;;;1.50;;
27365;SDS011;14837;57.148;-2.144;2023-04-15T12:56:16;5.47;;;1.63;;
27365;SDS011;14837;57.148;-2.144;2023-04-15T12:58:42;5.10;;;1.58;;
27365;SDS011;14837;57.148;-2.144;2023-04-15T13:01:09;1.40;;;0.82;;
27365;SDS011;14837;57.148;-2.144;2023-04-15T13:03:36;6.43;;;1.20;;
27365;SDS011;14837;57.148;-2.144;2023-04-15T13:06:03;2.13;;;1.08;;
27365;SDS011;14837;57.148;-2.144;2023-04-15T13:08:30;4.43;;;1.27;;
27365;SDS011;14837;57.148;-2.144;2023-04-15T13:10:57;3.22;;;1.42;;
27365;SDS011;14837;57.148;-2.144;2023-04-15T13:13:23;3.03;;;1.33;;
27365;SDS011;14837;57.148;-2.144;2023-04-15T13:15:50;3.45;;;1.25;;
27365;SDS011;14837;57.148;-2.144;2023-04-15T13:18:16;3.40;;;1.30;;
27365;SDS011;14837;57.148;-2.144;2023-04-15T13:20:43;5.85;;;1.45;;
27365;SDS011;14837;57.148;-2.144;2023-04-15T13:23:10;4.78;;;1.50;;
27365;SDS011;14837;57.148;-2.144;2023-04-15T13:25:36;2.88;;;1.00;;
27365;SDS011;14837;57.148;-2.144;2023-04-15T13:28:03;2.22;;;1.25;;
27365;SDS011;14837;57.148;-2.144;2023-04-15T13:30:29;4.97;;;1.35;;
27365;SDS011;14837;57.148;-2.144;2023-04-15T13:32:56;2.00;;;1.17;;
27365;SDS011;14837;57.148;-2.144;2023-04-15T13:35:23;2.95;;;1.48;;
27365;SDS011;14837;57.148;-2.144;2023-04-15T13:37:49;5.32;;;1.52;;
27365;SDS011;14837;57.148;-2.144;2023-04-15T13:40:16;4.57;;;1.27;;
27365;SDS011;14837;57.148;-2.144;2023-04-15T13:42:42;3.63;;;1.55;;
27365;SDS011;14837;57.148;-2.144;2023-04-15T13:45:09;2.10;;;1.05;;
27365;SDS011;14837;57.148;-2.144;2023-04-15T13:47:36;1.80;;;1.20;;
27365;SDS011;14837;57.148;-2.144;2023-04-15T13:50:03;4.75;;;1.90;;
27365;SDS011;14837;57.148;-2.144;2023-04-15T13:52:29;3.38;;;1.00;;
27365;SDS011;14837;57.148;-2.144;2023-04-15T13:54:56;4.32;;;1.05;;
27365;SDS011;14837;57.148;-2.144;2023-04-15T13:57:43;2.72;;;1.20;;
27365;SDS011;14837;57.148;-2.144;2023-04-15T14:00:10;1.73;;;1.15;;
27365;SDS011;14837;57.148;-2.144;2023-04-15T14:02:38;5.72;;;1.67;;
27365;SDS011;14837;57.148;-2.144;2023-04-15T14:05:05;5.07;;;1.20;;
27365;SDS011;14837;57.148;-2.144;2023-04-15T14:07:32;4.03;;;1.38;;
27365;SDS011;14837;57.148;-2.144;2023-04-15T14:09:58;1.38;;;0.98;;
27365;SDS011;14837;57.148;-2.144;2023-04-15T14:12:25;3.95;;;1.00;;
27365;SDS011;14837;57.148;-2.144;2023-04-15T14:14:52;4.53;;;1.05;;
27365;SDS011;14837;57.148;-2.144;2023-04-15T14:17:18;2.13;;;1.10;;
27365;SDS011;14837;57.148;-2.144;2023-04-15T14:19:45;4.22;;;1.38;;
27365;SDS011;14837;57.148;-2.144;2023-04-15T14:22:12;4.03;;;1.17;;
27365;SDS011;14837;57.148;-2.144;2023-04-15T14:24:38;2.25;;;1.58;;
27365;SDS011;14837;57.148;-2.144;2023-04-15T14:27:05;3.50;;;1.13;;
27365;SDS011;14837;57.148;-2.144;2023-04-15T14:29:31;3.72;;;1.70;;
27365;SDS011;14837;57.148;-2.144;2023-04-15T14:31:58;2.55;;;1.10;;
27365;SDS011;14837;57.148;-2.144;2023-04-15T14:34:37;3.78;;;1.40;;